createdAt,value
2023-02-22T00:02:45.153Z,126.28
2023-02-22T00:05:32.694Z,135.43
2023-02-22T00:08:22.456Z,133.35
2023-02-22T00:11:10.162Z,124.57
2023-02-22T00:13:58.067Z,119.18
2023-02-22T00:16:46.877Z,114.72
2023-02-22T00:19:34.100Z,114.22
2023-02-22T00:22:21.599Z,108.72
2023-02-22T00:25:09.837Z,116.90
2023-02-22T00:27:57.372Z,117.72
2023-02-22T00:30:45.045Z,97.60
2023-02-22T00:33:34.306Z,100.60
2023-02-22T00:36:21.764Z,89.28
2023-02-22T00:39:09.441Z,98.30
2023-02-22T00:41:56.926Z,94.47
2023-02-22T00:44:44.610Z,75.93
2023-02-22T00:47:32.032Z,65.40
2023-02-22T00:50:21.992Z,68.57
2023-02-22T00:53:10.368Z,69.72
2023-02-22T00:55:57.532Z,67.45
2023-02-22T00:58:45.722Z,73.43
2023-02-22T01:01:33.460Z,73.72
2023-02-22T01:04:20.747Z,65.65
2023-02-22T01:07:12.287Z,69.53
2023-02-22T01:10:02.721Z,66.07
2023-02-22T01:12:53.391Z,76.85
2023-02-22T01:15:46.069Z,76.47
2023-02-22T01:18:36.163Z,87.05
2023-02-22T01:21:26.572Z,76.38
2023-02-22T01:24:18.754Z,76.63
2023-02-22T01:27:08.813Z,68.15
2023-02-22T01:29:58.989Z,83.32
2023-02-22T01:32:48.208Z,63.72
2023-02-22T01:35:41.627Z,77.82
2023-02-22T01:38:30.502Z,74.88
2023-02-22T01:41:22.121Z,72.53
2023-02-22T01:44:25.652Z,71.10
2023-02-22T01:47:15.512Z,66.15
2023-02-22T01:50:06.147Z,72.07
2023-02-22T01:52:55.630Z,95.93
2023-02-22T01:55:45.874Z,96.75
2023-02-22T01:58:39.176Z,100.83
2023-02-22T02:01:27.313Z,98.15
2023-02-22T02:04:20.689Z,85.80
2023-02-22T02:07:10.009Z,80.70
2023-02-22T02:10:02.869Z,56.67
2023-02-22T02:12:55.759Z,56.03
2023-02-22T02:15:50.566Z,51.85
2023-02-22T02:18:41.028Z,56.83
2023-02-22T02:22:09.184Z,47.65
2023-02-22T02:25:40.033Z,54.35
2023-02-22T02:28:53.015Z,53.95
2023-02-22T02:32:18.117Z,47.45
2023-02-22T02:35:14.907Z,55.05
2023-02-22T02:38:13.550Z,86.10
2023-02-22T02:41:12.966Z,81.63
2023-02-22T02:44:08.326Z,73.78
2023-02-22T02:47:02.734Z,72.93
2023-02-22T02:49:57.610Z,76.20
2023-02-22T02:52:48.997Z,77.55
2023-02-22T02:55:40.255Z,74.65
2023-02-22T02:58:30.615Z,66.93
2023-02-22T03:01:35.358Z,66.90
2023-02-22T03:04:38.913Z,67.22
2023-02-22T03:07:43.801Z,57.50
2023-02-22T03:10:47.936Z,50.53
2023-02-22T03:13:47.844Z,43.90
2023-02-22T03:16:45.528Z,47.10
2023-02-22T03:19:40.573Z,42.92
2023-02-22T03:22:35.837Z,46.65
2023-02-22T05:21:13.611Z,33.05
2023-02-22T05:24:01.192Z,34.53
2023-02-22T05:26:48.645Z,41.28
2023-02-22T05:29:38.719Z,40.08
2023-02-22T05:32:27.612Z,35.47
2023-02-22T05:35:16.749Z,43.38
2023-02-22T05:38:04.287Z,36.65
2023-02-22T05:40:51.785Z,42.90
2023-02-22T05:43:39.618Z,38.28
2023-02-22T05:46:27.287Z,36.17
2023-02-22T05:49:14.532Z,38.00
2023-02-22T05:52:03.730Z,48.05
